עמוד ראשי
METAR-TAF:

METAR-TAF

שדות תעופה :

קמפו גרנדה, מאטו גרוסו דו סול, ברזיל

קו רוחב: 20-28S, קו אורך: 054-40W, גובה: 567מטר

תצפית מזג אוויר נוכחית

הדו"ח נערך לפני 1 שעות ו 11דקות, בשעה 03:00 UTC
רוח 7קשר מכיוון מזרח
טמפרטורת 21 צלסיוס
לחות 43%
לחץ 1020 hPa
ראות 10 קילומטר או יותר
ללא עננים שבסיסם נמוך מ 5000 רגל או קומולונימבוס

METAR: SBCG 210300Z 09007KT CAVOK 21/08 Q1020

זמן: 00:11 (04:11 UTC)

תחזית

הדו"ח נערך לפני 9 שעות ו 11דקות, בשעה 19:00 UTC
תחזית בתוקף מ 21 ב 00 UTC עד 21 ב 24 UTC
רוח 10קשר מכיוון מזרח
ראות 10 קילומטר או יותר
ללא עננים שבסיסם נמוך מ 5000 רגל או קומולונימבוס
יעשה מ
21 ב 12 UTC עד 21 ב 14 UTC
רוח 15קשר מכיוון צפון-מזרח
יעשה מ
21 ב 20 UTC עד 21 ב 22 UTC
רוח 5קשר מכיוון מזרח

TAF: SBCG 201900Z 2100/2124 09010KT CAVOK TN19/2109Z TX32/2118Z BECMG 2112/2114 05015KT BECMG 2120/2122 09005KT RMK PGN

תצפיות ותחזיות מזג אוויר לגבי יותר מ- 4,000 שדות תעופה ברחבי העולם. דוחות METAR ו- TAF.

התחנות הזמינות מסומנות בנקודות צהובות ואדומות על גבי המפה.

העבר את העכבר לנקודה הצבעונית על מנת לראות את שם התחנה.

לאחר מכן, לחץ כדי לראות את תוכן ואת תחזיות מזג האוויר.

כדי לשנות את המפה: לחץ על הכפתורים הירוקים עם הפלוס השחור כדי להתקרב; על הכפתור הירוק עם המקף כדי להתרחק; או בחיצים הירוקים למפות סמוכות.


METAR-TAF: